Time;durP1;ratioP1;P1;durP2;ratioP2;P2;SDS_P1;SDS_P2;PMS_P1;PMS_P2;Temp;Humidity;BMP_temperature;BMP_pressure;BME280_temperature;BME280_humidity;BME280_pressure;Samples;Min_cycle;Max_cycle;Signal;HPM_P1;HPM_P2
2023/07/30 00:01:29;;;;;;;;;;;;;;;14.96;84.12;100889.47;5077198;28;20359;-79
2023/07/30 00:03:54;;;;;;;;;;;;;;;14.96;83.13;100893.91;5070758;28;19916;-79
2023/07/30 00:06:20;;;;;;;;;;;;;;;14.95;83.75;100889.53;5062604;28;19958;-79
2023/07/30 00:08:45;;;;;;;;;;;;;;;14.92;83.99;100887.84;5071322;28;20275;-79
2023/07/30 00:11:10;;;;;;;;;;;;;;;14.90;83.15;100889.69;5072738;28;19943;-79
2023/07/30 00:13:36;;;;;;;;;;;;;;;14.85;84.31;100886.34;5072715;28;20437;-79
2023/07/30 00:16:01;;;;;;;;;;;;;;;14.84;84.39;100887.28;5060050;28;19921;-79
2023/07/30 00:18:26;;;;;;;;;;;;;;;14.82;83.42;100884.66;5071381;28;20015;-79
2023/07/30 00:20:52;;;;;;;;;;;;;;;14.79;84.62;100883.94;5057598;28;19966;-79
2023/07/30 00:23:17;;;;;;;;;;;;;;;14.75;84.73;100877.84;5054601;28;20352;-79
2023/07/30 00:25:42;;;;;;;;;;;;;;;14.72;83.85;100877.97;5066546;28;20397;-79
2023/07/30 00:28:08;;;;;;;;;;;;;;;14.72;83.25;100893.09;5065913;28;20339;-79
2023/07/30 00:30:33;;;;;;;;;;;;;;;14.68;85.23;100888.78;5079627;28;20312;-79
2023/07/30 00:32:59;;;;;;;;;;;;;;;14.63;85.21;100896.97;5059693;28;19974;-79
2023/07/30 00:35:24;;;;;;;;;;;;;;;14.60;85.57;100897.94;5070769;28;19928;-79
2023/07/30 00:37:49;;;;;;;;;;;;;;;14.58;85.59;100899.78;5072481;28;20011;-80
2023/07/30 00:40:15;;;;;;;;;;;;;;;14.55;86.38;100896.38;5071235;28;19971;-80
2023/07/30 00:42:40;;;;;;;;;;;;;;;14.54;86.84;100891.97;5082498;28;19924;-79
2023/07/30 00:45:06;;;;;;;;;;;;;;;14.51;87.51;100886.72;5074314;28;19923;-79
2023/07/30 00:47:31;;;;;;;;;;;;;;;14.48;87.21;100882.38;5091435;28;20373;-79
2023/07/30 00:49:57;;;;;;;;;;;;;;;14.48;86.96;100886.84;5077365;28;19916;-79
2023/07/30 00:52:23;;;;;;;;;;;;;;;14.46;86.46;100894.88;5077877;28;19916;-79
2023/07/30 00:54:49;;;;;;;;;;;;;;;14.42;87.48;100893.28;5077933;28;20382;-79
2023/07/30 00:57:15;;;;;;;;;;;;;;;14.41;88.47;100897.75;5070712;28;19916;-80
2023/07/30 00:59:41;;;;;;;;;;;;;;;14.40;87.64;100905.78;5066769;28;19919;-79
2023/07/30 01:02:06;;;;;;;;;;;;;;;14.39;88.25;100896.94;5087412;28;20015;-80
2023/07/30 01:04:32;;;;;;;;;;;;;;;14.40;86.82;100908.44;5061036;28;19993;-80
2023/07/30 01:06:57;;;;;;;;;;;;;;;14.36;88.53;100910.34;5091962;28;19924;-79
2023/07/30 01:09:23;;;;;;;;;;;;;;;14.37;87.35;100913.91;5075573;28;19928;-79
2023/07/30 01:11:49;;;;;;;;;;;;;;;14.34;87.08;100916.66;5071380;28;19950;-79
2023/07/30 01:14:15;;;;;;;;;;;;;;;14.32;88.30;100918.53;5090239;28;19920;-79
2023/07/30 01:16:40;;;;;;;;;;;;;;;14.29;87.06;100919.50;5077369;28;19927;-80
2023/07/30 01:19:07;;;;;;;;;;;;;;;14.28;86.70;100923.06;5092038;28;19939;-79
2023/07/30 01:21:33;;;;;;;;;;;;;;;14.24;88.67;100921.44;5076863;28;19971;-79
2023/07/30 01:23:59;;;;;;;;;;;;;;;14.22;89.10;100923.31;5089987;28;19986;-79
2023/07/30 01:26:27;;;;;;;;;;;;;;;14.20;88.01;100923.34;5073603;28;20355;-79
2023/07/30 01:28:54;;;;;;;;;;;;;;;14.19;88.61;100926.06;5076151;28;20022;-79
2023/07/30 01:31:21;;;;;;;;;;;;;;;14.16;88.63;100928.84;5090421;28;19965;-79
2023/07/30 01:33:48;;;;;;;;;;;;;;;14.15;88.58;100932.44;5064088;28;19935;-79
2023/07/30 01:36:15;;;;;;;;;;;;;;;14.14;88.06;100934.25;5078485;28;19962;-79
2023/07/30 01:38:42;;;;;;;;;;;;;;;14.11;88.90;100936.97;5077624;28;19970;-80
2023/07/30 01:41:07;;;;;;;;;;;;;;;14.08;90.25;100939.75;5070367;28;20386;-79
2023/07/30 01:43:32;;;;;;;;;;;;;;;14.08;89.43;100936.22;5082596;28;19920;-79
2023/07/30 01:45:58;;;;;;;;;;;;;;;14.07;89.38;100942.47;5071802;28;19924;-79
2023/07/30 01:48:23;;;;;;;;;;;;;;;14.05;91.42;100945.19;5080617;28;19920;-79
2023/07/30 01:50:48;;;;;;;;;;;;;;;14.05;90.08;100947.88;5073994;28;19920;-79
2023/07/30 01:53:14;;;;;;;;;;;;;;;14.03;91.33;100949.69;5078277;28;20003;-79
2023/07/30 01:55:46;;;;;;;;;;;;;;;14.05;90.97;100949.66;5077132;28;19964;-79
2023/07/30 01:58:11;;;;;;;;;;;;;;;14.04;92.14;100948.78;5060296;28;19955;-79
2023/07/30 02:00:37;;;;;;;;;;;;;;;14.05;92.18;100947.88;5090125;28;19943;-79
2023/07/30 02:03:05;;;;;;;;;;;;;;;14.03;91.89;100956.81;5074263;28;20093;-79
2023/07/30 02:05:31;;;;;;;;;;;;;;;14.01;92.12;100956.00;5090022;28;19999;-79
2023/07/30 02:07:57;;;;;;;;;;;;;;;14.01;92.00;100953.34;5075713;28;20892;-79
2023/07/30 02:10:24;;;;;;;;;;;;;;;14.00;92.91;100948.94;5066911;28;19993;-79
2023/07/30 02:12:49;;;;;;;;;;;;;;;14.03;92.84;100948.84;5089653;28;19942;-79
2023/07/30 02:15:14;;;;;;;;;;;;;;;14.04;93.04;100945.25;5056401;28;20007;-79
2023/07/30 02:17:40;;;;;;;;;;;;;;;14.06;92.40;100944.25;5089803;28;20374;-79
2023/07/30 02:20:06;;;;;;;;;;;;;;;14.09;91.78;100941.50;5087251;28;19917;-79
2023/07/30 02:22:32;;;;;;;;;;;;;;;14.13;91.22;100931.63;5079926;28;20323;-79
2023/07/30 02:24:57;;;;;;;;;;;;;;;14.11;92.97;100931.66;5073120;28;19935;-79
2023/07/30 02:27:22;;;;;;;;;;;;;;;14.11;94.72;100931.66;5075027;28;19920;-79
2023/07/30 02:29:48;;;;;;;;;;;;;;;14.12;93.85;100937.84;5095820;28;20392;-79
2023/07/30 02:32:13;;;;;;;;;;;;;;;14.13;94.36;100931.63;5095487;28;19916;-75
2023/07/30 02:34:39;;;;;;;;;;;;;;;14.13;95.10;100928.94;5081346;28;19916;-75
2023/07/30 02:37:04;;;;;;;;;;;;;;;14.13;94.84;100926.28;5077535;28;19985;-75
2023/07/30 02:39:29;;;;;;;;;;;;;;;14.15;95.16;100921.78;5090996;28;19925;-75
2023/07/30 02:41:55;;;;;;;;;;;;;;;14.16;95.53;100923.50;5089612;28;19928;-75
2023/07/30 02:44:20;;;;;;;;;;;;;;;14.18;94.68;100930.53;5076881;28;19938;-75
2023/07/30 02:46:46;;;;;;;;;;;;;;;14.20;94.92;100927.81;5076999;28;19924;-75
2023/07/30 02:49:11;;;;;;;;;;;;;;;14.18;96.17;100922.53;5093736;28;20003;-75
2023/07/30 02:51:36;;;;;;;;;;;;;;;14.21;94.91;100918.88;5089674;28;19963;-75
2023/07/30 02:54:05;;;;;;;;;;;;;;;14.22;95.81;100923.31;5090796;28;20314;-75
2023/07/30 02:56:30;;;;;;;;;;;;;;;14.23;95.83;100927.69;5093591;28;19926;-75
2023/07/30 02:58:57;;;;;;;;;;;;;;;14.23;96.80;100927.69;5095186;28;19924;-76
2023/07/30 03:01:22;;;;;;;;;;;;;;;14.30;95.30;100931.03;5076850;28;19973;-76
2023/07/30 03:03:47;;;;;;;;;;;;;;;14.31;95.63;100932.75;5093663;28;19920;-75
2023/07/30 03:06:14;;;;;;;;;;;;;;;14.31;95.63;100933.59;5090965;28;19931;-75
2023/07/30 03:08:39;;;;;;;;;;;;;;;14.32;96.15;100931.84;5064517;28;19919;-75
2023/07/30 03:11:04;;;;;;;;;;;;;;;14.30;97.95;100929.22;5069776;28;19965;-75
2023/07/30 03:13:30;;;;;;;;;;;;;;;14.33;97.57;100928.25;5076496;28;19935;-75
2023/07/30 03:15:55;;;;;;;;;;;;;;;14.34;98.76;100924.63;5076161;28;19924;-76
2023/07/30 03:18:20;;;;;;;;;;;;;;;14.36;96.86;100926.31;5094701;28;20467;-76
2023/07/30 03:20:46;;;;;;;;;;;;;;;14.37;96.49;100925.41;5093118;28;19953;-75
2023/07/30 03:23:11;;;;;;;;;;;;;;;14.38;98.68;100929.81;5093229;28;20045;-78
2023/07/30 03:25:36;;;;;;;;;;;;;;;14.40;98.20;100941.28;5076534;28;20409;-79
2023/07/30 03:28:02;;;;;;;;;;;;;;;14.41;99.44;100940.38;5080073;28;20232;-79
2023/07/30 03:30:27;;;;;;;;;;;;;;;14.46;99.65;100936.66;5093960;28;19996;-79
2023/07/30 03:32:53;;;;;;;;;;;;;;;14.50;99.11;100932.97;5094434;28;19926;-79
2023/07/30 03:35:18;;;;;;;;;;;;;;;14.49;98.88;100942.75;5078883;28;20223;-79
2023/07/30 03:37:43;;;;;;;;;;;;;;;14.50;99.13;100936.50;5093981;28;19985;-79
2023/07/30 03:40:09;;;;;;;;;;;;;;;14.51;98.45;100932.88;5094428;28;19972;-79
2023/07/30 03:42:34;;;;;;;;;;;;;;;14.51;98.67;100932.88;5076237;28;19955;-79
2023/07/30 03:44:59;;;;;;;;;;;;;;;14.52;97.97;100936.44;5082110;28;19932;-79
2023/07/30 03:47:25;;;;;;;;;;;;;;;14.51;98.79;100942.69;5075254;28;20563;-79
2023/07/30 03:49:51;;;;;;;;;;;;;;;14.54;98.00;100954.16;5068403;28;20011;-79
2023/07/30 03:52:17;;;;;;;;;;;;;;;14.56;97.85;100954.06;5066505;28;20073;-79
2023/07/30 03:54:42;;;;;;;;;;;;;;;14.58;99.38;100952.22;5094200;28;19924;-79
2023/07/30 03:57:08;;;;;;;;;;;;;;;14.58;97.85;100957.56;5092748;28;20489;-79
2023/07/30 03:59:33;;;;;;;;;;;;;;;14.58;98.02;100957.56;5094109;28;19920;-79
2023/07/30 04:01:59;;;;;;;;;;;;;;;14.60;96.81;100959.25;5075947;28;19920;-79
2023/07/30 04:04:24;;;;;;;;;;;;;;;14.59;98.12;100957.50;5092706;28;19916;-79
2023/07/30 04:06:50;;;;;;;;;;;;;;;14.63;97.59;100955.59;5075383;28;20006;-78
2023/07/30 04:09:15;;;;;;;;;;;;;;;14.60;99.60;100955.72;5076047;28;20317;-79
2023/07/30 04:11:40;;;;;;;;;;;;;;;14.60;99.58;100953.91;5089789;28;19924;-79
2023/07/30 04:14:07;;;;;;;;;;;;;;;14.63;98.32;100953.78;5093889;28;19924;-79
2023/07/30 04:16:33;;;;;;;;;;;;;;;14.64;97.99;100954.69;5093543;28;20265;-79
2023/07/30 04:18:58;;;;;;;;;;;;;;;14.64;98.07;100965.34;5075661;28;19915;-79
2023/07/30 04:21:24;;;;;;;;;;;;;;;14.65;97.84;100964.41;5093360;28;19916;-79
2023/07/30 04:23:49;;;;;;;;;;;;;;;14.65;97.98;100964.41;5092200;28;19920;-79
2023/07/30 04:26:14;;;;;;;;;;;;;;;14.66;98.38;100959.94;5091968;28;19930;-78
2023/07/30 04:28:40;;;;;;;;;;;;;;;14.67;98.78;100967.88;5091893;28;19924;-78
2023/07/30 04:31:06;;;;;;;;;;;;;;;14.69;97.77;100962.47;5092134;28;20427;-79
2023/07/30 04:33:31;;;;;;;;;;;;;;;14.68;98.40;100966.94;5070317;28;19928;-79
2023/07/30 04:35:57;;;;;;;;;;;;;;;14.68;97.48;100966.09;5063223;28;19931;-79
2023/07/30 04:38:23;;;;;;;;;;;;;;;14.67;98.99;100973.22;5091907;28;19916;-79
2023/07/30 04:40:49;;;;;;;;;;;;;;;14.67;98.80;100970.56;5082478;28;19931;-79
2023/07/30 04:43:14;;;;;;;;;;;;;;;14.67;99.36;100972.34;5091726;28;20351;-79
2023/07/30 04:45:42;;;;;;;;;;;;;;;14.76;98.65;100972.00;5074313;28;19928;-78
2023/07/30 04:48:07;;;;;;;;;;;;;;;14.73;99.53;100972.13;5091750;28;20011;-78
2023/07/30 04:50:33;;;;;;;;;;;;;;;14.73;98.89;100962.31;5090484;28;20015;-78
2023/07/30 04:52:58;;;;;;;;;;;;;;;14.74;98.46;100965.88;5084313;28;19967;-79
2023/07/30 04:55:24;;;;;;;;;;;;;;;14.76;98.63;100962.22;5092684;28;19965;-79
2023/07/30 04:57:49;;;;;;;;;;;;;;;14.81;97.69;100967.34;5092747;28;19925;-79
2023/07/30 05:00:15;;;;;;;;;;;;;;;14.83;99.17;100969.03;5061806;28;19920;-78
2023/07/30 05:02:40;;;;;;;;;;;;;;;14.85;97.98;100974.31;5089834;28;19931;-79
2023/07/30 05:05:06;;;;;;;;;;;;;;;14.87;98.58;100980.47;5092283;28;19973;-78
2023/07/30 05:07:31;;;;;;;;;;;;;;;14.88;98.45;100978.69;5079903;28;19943;-79
2023/07/30 05:09:57;;;;;;;;;;;;;;;14.91;98.93;100986.56;5083098;28;19927;-78
2023/07/30 05:12:22;;;;;;;;;;;;;;;14.95;98.42;100981.03;5092520;28;20400;-78
2023/07/30 05:14:47;;;;;;;;;;;;;;;14.97;98.07;100986.34;5092452;28;19923;-78
2023/07/30 05:17:13;;;;;;;;;;;;;;;14.99;98.87;100996.00;5091035;28;20394;-78
2023/07/30 05:19:38;;;;;;;;;;;;;;;15.01;99.62;100995.97;5091245;28;20339;-79
2023/07/30 05:22:05;;;;;;;;;;;;;;;14.99;100.00;100998.69;5091007;28;19969;-79
2023/07/30 05:24:31;;;;;;;;;;;;;;;15.04;99.26;100988.72;5080010;28;20389;-78
2023/07/30 05:26:56;;;;;;;;;;;;;;;15.04;99.15;100996.72;5090507;28;20072;-78
2023/07/30 05:29:22;;;;;;;;;;;;;;;15.08;99.87;100999.25;5074004;28;19924;-78
2023/07/30 05:31:47;;;;;;;;;;;;;;;15.07;100.00;101001.06;5073865;28;19920;-78
2023/07/30 05:34:12;;;;;;;;;;;;;;;15.12;98.59;100999.09;5079526;28;20264;-78
2023/07/30 05:36:38;;;;;;;;;;;;;;;15.12;98.51;100999.09;5068298;28;19949;-79
2023/07/30 05:39:03;;;;;;;;;;;;;;;15.12;98.78;100999.09;5092151;28;19926;-78
2023/07/30 05:41:28;;;;;;;;;;;;;;;15.17;99.36;100998.91;5092523;28;20373;-78
2023/07/30 05:43:54;;;;;;;;;;;;;;;15.21;99.27;100996.06;5092203;28;20057;-78
2023/07/30 05:46:19;;;;;;;;;;;;;;;15.19;99.24;100997.06;5092159;28;19923;-78
2023/07/30 05:48:44;;;;;;;;;;;;;;;15.17;99.85;100982.91;5091912;28;20307;-78
2023/07/30 05:51:10;;;;;;;;;;;;;;;15.19;98.98;100989.91;5091089;28;19959;-78
2023/07/30 05:53:35;;;;;;;;;;;;;;;15.24;99.17;100989.75;5085553;28;19920;-78
2023/07/30 05:56:01;;;;;;;;;;;;;;;15.26;98.72;100993.22;5091644;28;19920;-79
2023/07/30 05:58:26;;;;;;;;;;;;;;;15.31;98.65;100990.38;5091935;28;19920;-78
2023/07/30 06:00:51;;;;;;;;;;;;;;;15.33;99.20;100993.84;5089996;28;19923;-78
2023/07/30 06:03:17;;;;;;;;;;;;;;;15.33;99.45;100997.41;5073883;28;19920;-78
2023/07/30 06:05:42;;;;;;;;;;;;;;;15.36;99.75;101004.41;5091223;28;19924;-78
2023/07/30 06:08:08;;;;;;;;;;;;;;;15.39;99.92;100997.16;5091580;28;20013;-78
2023/07/30 06:10:34;;;;;;;;;;;;;;;15.47;98.91;100999.50;5079118;28;19923;-78
2023/07/30 06:12:59;;;;;;;;;;;;;;;15.50;98.46;101004.72;5091724;28;19920;-78
2023/07/30 06:15:25;;;;;;;;;;;;;;;15.47;99.90;101000.38;5091698;28;19942;-78
2023/07/30 06:17:50;;;;;;;;;;;;;;;15.52;99.44;101005.53;5091559;28;19967;-78
2023/07/30 06:20:15;;;;;;;;;;;;;;;15.55;98.90;100997.38;5073052;28;19920;-78
2023/07/30 06:22:41;;;;;;;;;;;;;;;15.54;99.25;101005.47;5091291;28;19978;-78
2023/07/30 06:25:06;;;;;;;;;;;;;;;15.60;98.89;100999.88;5090138;28;19924;-78
2023/07/30 06:27:31;;;;;;;;;;;;;;;15.60;99.58;101000.78;5091622;28;19991;-78
2023/07/30 06:29:57;;;;;;;;;;;;;;;15.62;99.33;101001.56;5073669;28;19989;-78
2023/07/30 06:32:22;;;;;;;;;;;;;;;15.64;98.49;101004.19;5091480;28;19942;-78
2023/07/30 06:34:47;;;;;;;;;;;;;;;15.65;98.88;101005.91;5082690;28;20013;-78
2023/07/30 06:37:13;;;;;;;;;;;;;;;15.69;99.23;101004.84;5091456;28;19932;-78
2023/07/30 06:39:38;;;;;;;;;;;;;;;15.74;99.08;101002.91;5091354;28;19973;-78
2023/07/30 06:42:03;;;;;;;;;;;;;;;15.82;98.58;101005.25;5091223;28;19959;-78
2023/07/30 06:44:29;;;;;;;;;;;;;;;15.84;98.57;100993.56;5089958;28;19916;-78
2023/07/30 06:46:54;;;;;;;;;;;;;;;15.88;98.74;101005.88;5091278;28;20540;-78
2023/07/30 06:49:20;;;;;;;;;;;;;;;15.94;98.10;101002.06;5091183;28;20387;-78
2023/07/30 06:51:45;;;;;;;;;;;;;;;15.94;98.26;100993.19;5091313;28;19916;-78
2023/07/30 06:54:10;;;;;;;;;;;;;;;16.00;97.67;101001.84;5089593;28;19923;-78
2023/07/30 06:56:36;;;;;;;;;;;;;;;16.04;97.69;100994.53;5089895;28;20014;-78
2023/07/30 06:59:01;;;;;;;;;;;;;;;16.08;97.75;100998.84;5075292;28;19927;-78
2023/07/30 07:01:27;;;;;;;;;;;;;;;16.16;97.38;101001.19;5091190;28;19920;-78
2023/07/30 07:03:52;;;;;;;;;;;;;;;16.22;97.21;101008.91;5091216;28;20368;-78
2023/07/30 07:06:18;;;;;;;;;;;;;;;16.28;96.28;101004.19;5088239;28;19970;-78
2023/07/30 07:08:43;;;;;;;;;;;;;;;16.26;97.56;101007.88;5078255;28;19930;-78
2023/07/30 07:11:08;;;;;;;;;;;;;;;16.30;96.89;101009.47;5079096;28;19989;-78
2023/07/30 07:13:33;;;;;;;;;;;;;;;16.40;96.38;101015.31;5079149;28;19920;-77
2023/07/30 07:15:59;;;;;;;;;;;;;;;16.50;96.25;101021.97;5094554;28;19920;-77
2023/07/30 07:18:24;;;;;;;;;;;;;;;16.56;96.34;101017.22;5095031;28;19927;-78
2023/07/30 07:20:49;;;;;;;;;;;;;;;16.64;96.16;101019.56;5076363;28;19931;-78
2023/07/30 07:23:15;;;;;;;;;;;;;;;16.67;95.63;101010.56;5076501;28;20011;-78
2023/07/30 07:25:40;;;;;;;;;;;;;;;16.69;94.37;101014.91;5093127;28;20278;-78
2023/07/30 07:28:05;;;;;;;;;;;;;;;16.66;93.72;101012.34;5094847;28;20275;-78
2023/07/30 07:30:33;;;;;;;;;;;;;;;16.68;94.10;101006.94;5094635;28;19939;-78
2023/07/30 07:32:59;;;;;;;;;;;;;;;16.79;94.09;101012.72;5079983;28;19916;-77
2023/07/30 07:35:24;;;;;;;;;;;;;;;16.86;93.79;101008.78;5072461;28;19921;-78
2023/07/30 07:37:49;;;;;;;;;;;;;;;16.93;94.28;101012.06;5073697;28;20303;-78
2023/07/30 07:40:15;;;;;;;;;;;;;;;16.97;93.49;101017.22;5073868;28;19920;-78
2023/07/30 07:42:40;;;;;;;;;;;;;;;16.99;92.20;101019.81;5086000;28;20002;-78
2023/07/30 07:45:06;;;;;;;;;;;;;;;16.96;92.69;101026.19;5072162;28;19973;-78
2023/07/30 07:47:32;;;;;;;;;;;;;;;16.97;92.87;101038.63;5073919;28;19966;-78
2023/07/30 07:49:57;;;;;;;;;;;;;;;16.93;92.35;101037.00;5072072;28;19920;-78
2023/07/30 07:52:22;;;;;;;;;;;;;;;16.94;91.20;101035.22;5073656;28;19921;-78
2023/07/30 07:54:48;;;;;;;;;;;;;;;16.88;92.12;101031.00;5057829;28;19943;-78
2023/07/30 07:57:13;;;;;;;;;;;;;;;16.88;92.10;101030.13;5072135;28;19927;-78
2023/07/30 07:59:38;;;;;;;;;;;;;;;16.91;92.54;101038.91;5073455;28;19920;-79
2023/07/30 08:02:04;;;;;;;;;;;;;;;17.00;90.63;101026.91;5077458;28;19928;-77
2023/07/30 08:04:29;;;;;;;;;;;;;;;17.00;91.07;101034.06;5068580;28;20374;-77
2023/07/30 08:06:59;;;;;;;;;;;;;;;17.01;91.17;101025.94;5074858;28;19986;-78
2023/07/30 08:09:25;;;;;;;;;;;;;;;17.23;89.23;101036.53;5071573;28;19927;-77
2023/07/30 08:11:50;;;;;;;;;;;;;;;17.10;89.90;101038.91;5052506;28;19920;-77
2023/07/30 08:14:15;;;;;;;;;;;;;;;17.16;89.64;101046.69;5074260;28;20305;-78
2023/07/30 08:16:41;;;;;;;;;;;;;;;17.16;90.23;101051.13;5071423;28;20011;-77
2023/07/30 08:19:06;;;;;;;;;;;;;;;17.21;89.45;101038.44;5071910;28;19928;-78
2023/07/30 08:21:32;;;;;;;;;;;;;;;17.33;89.33;101056.59;5078409;28;19924;-78
2023/07/30 08:23:57;;;;;;;;;;;;;;;17.56;87.15;101050.16;5066815;28;19924;-78
2023/07/30 08:26:22;;;;;;;;;;;;;;;17.50;87.34;101045.09;5068845;28;19929;-78
2023/07/30 08:28:48;;;;;;;;;;;;;;;17.51;87.37;101054.88;5071564;28;19923;-79
2023/07/30 08:31:13;;;;;;;;;;;;;;;17.54;86.12;101046.69;5072910;28;20001;-77
2023/07/30 08:33:38;;;;;;;;;;;;;;;17.44;86.54;101039.16;5072715;28;19927;-78
2023/07/30 08:36:04;;;;;;;;;;;;;;;17.37;87.67;101039.44;5074695;28;19920;-79
2023/07/30 08:38:30;;;;;;;;;;;;;;;17.20;90.56;101042.03;5071730;28;20281;-79
2023/07/30 08:40:55;;;;;;;;;;;;;;;17.10;91.93;101043.41;5056164;28;20290;-79
2023/07/30 08:43:21;;;;;;;;;;;;;;;17.02;92.95;101037.53;5071495;28;20014;-81
2023/07/30 08:45:46;;;;;;;;;;;;;;;16.94;93.38;101038.75;5054715;28;19924;-80
2023/07/30 08:48:11;;;;;;;;;;;;;;;16.94;93.42;101045.94;5086305;28;20243;-79
2023/07/30 08:50:37;;;;;;;;;;;;;;;16.98;93.24;101051.03;5050389;28;19973;-79
2023/07/30 08:53:03;;;;;;;;;;;;;;;16.94;94.03;101045.94;5085263;28;20052;-79
2023/07/30 08:55:29;;;;;;;;;;;;;;;16.91;93.61;101052.28;5076254;28;19916;-80
2023/07/30 08:57:59;;;;;;;;;;;;;;;16.93;94.66;101041.50;5087588;28;20361;-80
2023/07/30 09:00:25;;;;;;;;;;;;;;;16.99;93.47;101043.91;5089432;28;19916;-79
2023/07/30 09:02:56;;;;;;;;;;;;;;;17.05;93.66;101048.09;5078924;28;19912;-80
2023/07/30 09:05:22;;;;;;;;;;;;;;;17.11;93.62;101050.47;5082172;28;19928;-79
2023/07/30 09:07:48;;;;;;;;;;;;;;;17.18;93.85;101055.50;5074290;28;20022;-79
2023/07/30 09:10:14;;;;;;;;;;;;;;;17.21;90.38;101049.16;5067777;28;19920;-79
2023/07/30 09:12:39;;;;;;;;;;;;;;;17.27;91.26;101048.84;5074184;28;20298;-79
2023/07/30 09:15:06;;;;;;;;;;;;;;;17.38;89.23;101051.91;5056445;28;19974;-80
2023/07/30 09:17:31;;;;;;;;;;;;;;;17.49;88.93;101051.38;5070364;28;19920;-79
2023/07/30 09:19:58;;;;;;;;;;;;;;;17.65;90.47;101051.50;5082224;28;20388;-79
2023/07/30 09:22:25;;;;;;;;;;;;;;;17.84;88.08;101057.75;5077999;28;19938;-79
2023/07/30 09:24:50;;;;;;;;;;;;;;;17.89;85.99;101052.19;5081180;28;19934;-78
2023/07/30 09:27:22;;;;;;;;;;;;;;;17.99;87.03;101056.13;5085711;28;19920;-78
2023/07/30 09:29:55;;;;;;;;;;;;;;;18.19;86.41;101032.84;5078124;28;19920;-79
2023/07/30 09:32:25;;;;;;;;;;;;;;;18.23;84.68;101046.00;5089517;28;19919;-79
2023/07/30 09:34:50;;;;;;;;;;;;;;;18.33;85.96;101032.16;5073188;28;20367;-79
2023/07/30 09:37:16;;;;;;;;;;;;;;;18.62;84.98;101033.28;5073784;28;19921;-78
2023/07/30 09:39:43;;;;;;;;;;;;;;;18.74;84.07;101023.75;5073788;28;19991;-79
2023/07/30 09:42:08;;;;;;;;;;;;;;;18.79;83.10;101029.75;5072906;28;19982;-79
2023/07/30 09:44:33;;;;;;;;;;;;;;;18.67;80.24;101021.41;5091051;28;19920;-80
2023/07/30 09:47:04;;;;;;;;;;;;;;;18.45;77.24;101036.88;5090557;28;19992;-80
2023/07/30 09:49:31;;;;;;;;;;;;;;;18.24;77.90;101044.19;5065212;28;19966;-80
2023/07/30 09:51:57;;;;;;;;;;;;;;;18.08;80.66;101065.53;5076213;28;19928;-80
2023/07/30 09:54:23;;;;;;;;;;;;;;;17.98;81.16;101056.22;5072860;28;19923;-79
2023/07/30 09:56:48;;;;;;;;;;;;;;;17.96;81.88;101061.66;5073352;28;19917;-80
2023/07/30 09:59:14;;;;;;;;;;;;;;;17.90;80.83;101063.75;5053548;28;20032;-80
2023/07/30 10:01:47;;;;;;;;;;;;;;;17.88;80.64;101071.00;5065485;28;20019;-80
2023/07/30 10:04:12;;;;;;;;;;;;;;;17.78;81.23;101084.81;5073551;28;19924;-80
2023/07/30 10:06:42;;;;;;;;;;;;;;;17.74;84.39;101099.28;5073675;28;19924;-83
2023/07/30 10:09:10;;;;;;;;;;;;;;;17.39;86.51;101095.59;5066916;28;19917;-79
2023/07/30 10:11:36;;;;;;;;;;;;;;;17.09;86.92;101097.88;5062513;28;19971;-82
2023/07/30 10:14:01;;;;;;;;;;;;;;;16.86;90.44;101101.53;5068585;28;19917;-78
2023/07/30 10:16:29;;;;;;;;;;;;;;;16.72;90.18;101092.31;5066022;28;19912;-80
2023/07/30 10:18:56;;;;;;;;;;;;;;;16.52;92.85;101094.97;5046881;28;20335;-81
2023/07/30 10:21:22;;;;;;;;;;;;;;;16.47;94.42;101113.00;5061710;28;19916;-81
2023/07/30 10:24:01;;;;;;;;;;;;;;;16.34;92.87;101109.94;5063690;28;19920;-81
2023/07/30 10:26:31;;;;;;;;;;;;;;;16.16;94.20;101119.59;5066241;28;19921;-80
2023/07/30 10:29:12;;;;;;;;;;;;;;;16.02;93.11;101121.97;5067509;28;19993;-82
2023/07/30 10:31:39;;;;;;;;;;;;;;;15.95;93.19;101118.69;5062098;28;19921;-83
2023/07/30 10:34:07;;;;;;;;;;;;;;;15.82;93.62;101115.59;5062704;28;20023;-83
2023/07/30 10:36:33;;;;;;;;;;;;;;;15.81;95.03;101127.22;5050592;28;20435;-83
2023/07/30 10:39:10;;;;;;;;;;;;;;;15.78;96.29;101122.00;5050805;28;20015;-82
2023/07/30 10:41:36;;;;;;;;;;;;;;;15.83;97.32;101122.69;5050005;28;20375;-81
2023/07/30 10:44:02;;;;;;;;;;;;;;;15.95;99.46;101124.03;5061203;28;19933;-82
2023/07/30 10:46:28;;;;;;;;;;;;;;;16.09;99.68;101121.66;5048208;28;20842;-82
2023/07/30 10:48:54;;;;;;;;;;;;;;;16.18;100.00;101122.22;5050367;28;19921;-83
2023/07/30 10:51:23;;;;;;;;;;;;;;;16.26;99.94;101120.97;5066234;28;19916;-82
2023/07/30 10:53:50;;;;;;;;;;;;;;;16.40;100.00;101122.22;5071165;28;20011;-82
2023/07/30 10:56:16;;;;;;;;;;;;;;;16.49;100.00;101124.47;5047122;28;19929;-82
2023/07/30 10:58:42;;;;;;;;;;;;;;;16.71;100.00;101121.78;5068072;28;19916;-81
2023/07/30 11:01:08;;;;;;;;;;;;;;;17.01;100.00;101108.88;5069370;28;20390;-82
2023/07/30 11:03:34;;;;;;;;;;;;;;;17.31;100.00;101111.13;5063822;28;19928;-80
2023/07/30 11:06:00;;;;;;;;;;;;;;;17.70;99.27;101112.91;5060764;28;20004;-81
2023/07/30 11:08:51;;;;;;;;;;;;;;;17.96;97.30;101112.56;5066651;28;19924;-82
2023/07/30 11:11:17;;;;;;;;;;;;;;;18.29;97.66;101113.66;5065199;28;19952;-82
2023/07/30 11:13:43;;;;;;;;;;;;;;;18.50;93.77;101112.59;5069561;28;19959;-81
2023/07/30 11:16:09;;;;;;;;;;;;;;;18.73;90.87;101110.53;5060063;28;19917;-82
2023/07/30 11:18:35;;;;;;;;;;;;;;;18.87;88.88;101100.88;5057137;28;19928;-81
2023/07/30 11:21:11;;;;;;;;;;;;;;;19.00;87.49;101106.44;5070857;28;20298;-81
2023/07/30 11:23:37;;;;;;;;;;;;;;;19.13;86.78;101115.56;5067759;28;20011;-80
2023/07/30 11:26:04;;;;;;;;;;;;;;;19.34;86.51;101110.03;5066309;28;20379;-80
2023/07/30 11:28:36;;;;;;;;;;;;;;;19.54;84.97;101117.84;5072810;28;19917;-80
2023/07/30 11:31:03;;;;;;;;;;;;;;;19.66;81.63;101116.31;5074158;28;19954;-79
2023/07/30 11:33:29;;;;;;;;;;;;;;;19.62;81.73;101119.25;5070239;28;19924;-80
2023/07/30 11:35:55;;;;;;;;;;;;;;;19.57;82.70;101118.63;5050737;28;20268;-80
2023/07/30 11:38:21;;;;;;;;;;;;;;;19.47;82.58;101110.22;5066188;28;19920;-81
2023/07/30 11:40:47;;;;;;;;;;;;;;;19.27;78.03;101133.66;5072161;28;19920;-80
2023/07/30 11:43:13;;;;;;;;;;;;;;;19.22;77.08;101138.41;5060946;28;19986;-80
2023/07/30 11:45:38;;;;;;;;;;;;;;;19.19;75.59;101135.88;5061596;28;19947;-80
2023/07/30 11:48:10;;;;;;;;;;;;;;;19.21;75.01;101136.63;5072000;28;19928;-80
2023/07/30 11:51:01;;;;;;;;;;;;;;;19.46;75.33;101135.31;5065972;28;19928;-79
2023/07/30 11:53:46;;;;;;;;;;;;;;;19.84;73.46;101133.25;5066971;28;19916;-78
2023/07/30 11:56:30;;;;;;;;;;;;;;;20.05;70.19;101125.78;5060437;28;19959;-79
2023/07/30 11:58:56;;;;;;;;;;;;;;;20.14;68.17;101127.09;5062462;28;20217;-79
2023/07/30 12:01:23;;;;;;;;;;;;;;;20.33;67.73;101134.97;5061825;28;20345;-78
2023/07/30 12:03:49;;;;;;;;;;;;;;;20.44;65.41;101132.50;5067629;28;19916;-78
2023/07/30 12:06:14;;;;;;;;;;;;;;;20.63;62.28;101136.84;5072367;28;20388;-79
2023/07/30 12:08:39;;;;;;;;;;;;;;;20.59;64.08;101138.84;5072955;28;19917;-79
2023/07/30 12:11:05;;;;;;;;;;;;;;;20.51;65.47;101116.88;5072826;28;19928;-80
2023/07/30 12:13:31;;;;;;;;;;;;;;;20.39;62.63;101131.91;5057655;28;20248;-78
2023/07/30 12:15:56;;;;;;;;;;;;;;;20.37;60.19;101144.59;5069969;28;19923;-77
2023/07/30 12:18:25;;;;;;;;;;;;;;;20.27;59.41;101133.50;5039530;28;20391;-79
2023/07/30 12:20:51;;;;;;;;;;;;;;;20.15;60.21;101136.88;5065838;28;19917;-78
2023/07/30 12:23:17;;;;;;;;;;;;;;;20.17;61.59;101134.97;5063331;28;19928;-79
2023/07/30 12:25:43;;;;;;;;;;;;;;;20.12;61.11;101151.38;5056923;28;19999;-77
2023/07/30 12:28:08;;;;;;;;;;;;;;;20.10;62.81;101149.72;5070801;28;19916;-78
2023/07/30 12:30:35;;;;;;;;;;;;;;;20.16;61.92;101147.56;5053752;28;20329;-79